Dublin, TX (76446)

10:11 PM CST on February 13, 2016 (GMT -0600)
Roberts Community | | Change Station
CLOSE
Current Station
Personal Weather Station
Location: Proctor, TX
Elevation: 1391 ft
Nearby Weather Stations

Elev 1391 ft 32.00 °N, 98.39 °W | Updated 48 seconds ago

Clear
Clear
59.2 °F
Feels Like 59.2 °F
N
5.6
Wind Variable Wind from SSE
Gusts 7.4 mph

Today
High -- | Low -- °F
--% Chance of Precip.
Yesterday
High -- | Low -- °F
Precip. -- in
Pressure 30.12 in
Visibility 10.0 miles
Clouds Clear
Dew Point 52 °F
Humidity 76%
Rainfall 0.00 in
Snow Depth Not available.
7:17 AM 6:17 PM
Waxing Crescent, 37% visible
METAR KSEP 140355Z AUTO 17012G16KT 10SM CLR 16/11 A3012 RMK AO2 T01600106
Pressure 30.12 in
Visibility 10.0 miles
Clouds Clear
Dew Point 52 °F
Humidity 76%
Rainfall 0.00 in
Snow Depth Not available.
7:17 AM 6:17 PM
Waxing Crescent, 37% visible
METAR KSEP 140355Z AUTO 17012G16KT 10SM CLR 16/11 A3012 RMK AO2 T01600106

10-Day Weather Forecast

Almanac

Astronomy

Feb. 13, 2016 Rise Set
Actual Time
Civil Twilight
Nautical Twilight
Astronomical Twilight
Moon
Length of Visible Light
Length of Day
Tomorrow will be .
, % of the Moon is Illuminated

Today's Extremes

State Highs State Lows

Community

WunderPhotos

Upload Photos

1,892,743 photos uploaded!

WunderBlog® & News

Nearby

Air Quality

  Air Quality AQ Index Pollutant
Not available.

Snow Depth

Station Depth Elevation

Earthquake Activity

City Distance Mag. Time & Date
Minimum magnitude displayed is 2.5.

Coastal Water Temperatures

Place Temperature

Stations

Nearby Weather Stations

Station Location Temp. Windchill Dew Point Humidity Wind Precip. Elev Updated Type
                   

Watches & Warnings

There are currently no watches in effect.